sensor_id;sensor_type;location;lat;lon;timestamp;P1;durP1;ratioP1;P2;durP2;ratioP2
10659;SDS011;5378;53.206;13.316;2022-10-31T00:02:39;12.50;;;6.63;;
10659;SDS011;5378;53.206;13.316;2022-10-31T00:05:26;13.03;;;7.10;;
10659;SDS011;5378;53.206;13.316;2022-10-31T00:08:13;19.33;;;7.23;;
10659;SDS011;5378;53.206;13.316;2022-10-31T00:11:01;22.63;;;7.30;;
10659;SDS011;5378;53.206;13.316;2022-10-31T00:13:48;17.00;;;6.50;;
10659;SDS011;5378;53.206;13.316;2022-10-31T00:16:36;12.83;;;7.57;;
10659;SDS011;5378;53.206;13.316;2022-10-31T00:19:23;10.93;;;6.93;;
10659;SDS011;5378;53.206;13.316;2022-10-31T00:22:10;11.33;;;6.30;;
10659;SDS011;5378;53.206;13.316;2022-10-31T00:24:57;24.33;;;7.67;;
10659;SDS011;5378;53.206;13.316;2022-10-31T00:27:46;16.67;;;6.90;;
10659;SDS011;5378;53.206;13.316;2022-10-31T00:30:33;12.50;;;7.13;;
10659;SDS011;5378;53.206;13.316;2022-10-31T00:33:20;18.93;;;7.50;;
10659;SDS011;5378;53.206;13.316;2022-10-31T00:36:09;18.77;;;8.00;;
10659;SDS011;5378;53.206;13.316;2022-10-31T00:38:58;10.40;;;5.70;;
10659;SDS011;5378;53.206;13.316;2022-10-31T00:41:46;11.77;;;7.00;;
10659;SDS011;5378;53.206;13.316;2022-10-31T00:44:35;11.37;;;6.40;;
10659;SDS011;5378;53.206;13.316;2022-10-31T00:47:22;14.70;;;7.30;;
10659;SDS011;5378;53.206;13.316;2022-10-31T00:50:10;14.50;;;7.40;;
10659;SDS011;5378;53.206;13.316;2022-10-31T00:52:57;10.73;;;5.77;;
10659;SDS011;5378;53.206;13.316;2022-10-31T00:55:44;16.90;;;7.30;;
10659;SDS011;5378;53.206;13.316;2022-10-31T00:58:31;16.53;;;7.17;;
10659;SDS011;5378;53.206;13.316;2022-10-31T01:01:21;12.30;;;6.30;;
10659;SDS011;5378;53.206;13.316;2022-10-31T01:04:08;13.50;;;6.20;;
10659;SDS011;5378;53.206;13.316;2022-10-31T01:06:55;11.57;;;6.87;;
10659;SDS011;5378;53.206;13.316;2022-10-31T01:09:42;16.83;;;7.70;;
10659;SDS011;5378;53.206;13.316;2022-10-31T01:12:29;10.50;;;5.60;;
10659;SDS011;5378;53.206;13.316;2022-10-31T01:15:22;10.73;;;6.17;;
10659;SDS011;5378;53.206;13.316;2022-10-31T01:18:11;18.13;;;8.00;;
10659;SDS011;5378;53.206;13.316;2022-10-31T01:21:02;15.63;;;6.53;;
10659;SDS011;5378;53.206;13.316;2022-10-31T01:23:52;10.30;;;6.00;;
10659;SDS011;5378;53.206;13.316;2022-10-31T01:26:40;14.80;;;5.93;;
10659;SDS011;5378;53.206;13.316;2022-10-31T01:29:27;11.87;;;6.60;;
10659;SDS011;5378;53.206;13.316;2022-10-31T01:32:16;18.50;;;7.33;;
10659;SDS011;5378;53.206;13.316;2022-10-31T01:35:05;13.63;;;7.93;;
10659;SDS011;5378;53.206;13.316;2022-10-31T01:37:52;17.47;;;8.57;;
10659;SDS011;5378;53.206;13.316;2022-10-31T01:40:39;14.53;;;6.73;;
10659;SDS011;5378;53.206;13.316;2022-10-31T01:43:41;19.37;;;7.40;;
10659;SDS011;5378;53.206;13.316;2022-10-31T01:46:29;12.13;;;6.43;;
10659;SDS011;5378;53.206;13.316;2022-10-31T01:49:21;16.37;;;6.90;;
10659;SDS011;5378;53.206;13.316;2022-10-31T01:52:12;11.73;;;7.30;;
10659;SDS011;5378;53.206;13.316;2022-10-31T01:55:05;18.83;;;7.57;;
10659;SDS011;5378;53.206;13.316;2022-10-31T01:57:55;16.97;;;8.10;;
10659;SDS011;5378;53.206;13.316;2022-10-31T02:00:46;13.00;;;6.67;;
10659;SDS011;5378;53.206;13.316;2022-10-31T02:03:36;14.97;;;7.07;;
10659;SDS011;5378;53.206;13.316;2022-10-31T02:06:26;16.30;;;7.40;;
10659;SDS011;5378;53.206;13.316;2022-10-31T02:09:20;12.13;;;6.70;;
10659;SDS011;5378;53.206;13.316;2022-10-31T02:12:09;22.73;;;8.70;;
10659;SDS011;5378;53.206;13.316;2022-10-31T02:14:58;12.47;;;7.90;;
10659;SDS011;5378;53.206;13.316;2022-10-31T02:17:47;16.00;;;8.03;;
10659;SDS011;5378;53.206;13.316;2022-10-31T02:20:37;13.80;;;7.93;;
10659;SDS011;5378;53.206;13.316;2022-10-31T02:23:41;19.07;;;8.77;;
10659;SDS011;5378;53.206;13.316;2022-10-31T02:26:49;19.20;;;8.80;;
10659;SDS011;5378;53.206;13.316;2022-10-31T02:33:07;16.90;;;8.90;;
10659;SDS011;5378;53.206;13.316;2022-10-31T02:36:07;28.13;;;9.50;;
10659;SDS011;5378;53.206;13.316;2022-10-31T02:39:01;16.97;;;8.30;;
10659;SDS011;5378;53.206;13.316;2022-10-31T02:42:01;19.60;;;9.90;;
10659;SDS011;5378;53.206;13.316;2022-10-31T02:44:56;24.63;;;8.67;;
10659;SDS011;5378;53.206;13.316;2022-10-31T02:47:47;22.50;;;8.50;;
10659;SDS011;5378;53.206;13.316;2022-10-31T02:50:39;15.60;;;8.20;;
10659;SDS011;5378;53.206;13.316;2022-10-31T02:53:31;16.70;;;7.20;;
10659;SDS011;5378;53.206;13.316;2022-10-31T02:56:19;22.90;;;9.17;;
10659;SDS011;5378;53.206;13.316;2022-10-31T02:59:06;14.67;;;8.43;;
10659;SDS011;5378;53.206;13.316;2022-10-31T03:02:00;18.23;;;8.77;;
10659;SDS011;5378;53.206;13.316;2022-10-31T03:05:10;23.00;;;8.30;;
10659;SDS011;5378;53.206;13.316;2022-10-31T03:08:06;18.80;;;9.33;;
10659;SDS011;5378;53.206;13.316;2022-10-31T03:11:00;14.83;;;8.40;;
10659;SDS011;5378;53.206;13.316;2022-10-31T03:13:50;17.93;;;9.40;;
10659;SDS011;5378;53.206;13.316;2022-10-31T03:16:45;15.70;;;9.50;;
10659;SDS011;5378;53.206;13.316;2022-10-31T03:19:34;17.03;;;8.83;;
10659;SDS011;5378;53.206;13.316;2022-10-31T03:22:27;17.10;;;9.10;;
10659;SDS011;5378;53.206;13.316;2022-10-31T03:25:19;18.13;;;8.93;;
10659;SDS011;5378;53.206;13.316;2022-10-31T03:28:07;13.33;;;8.30;;
10659;SDS011;5378;53.206;13.316;2022-10-31T03:30:56;16.83;;;9.07;;
10659;SDS011;5378;53.206;13.316;2022-10-31T03:33:46;18.77;;;9.43;;
10659;SDS011;5378;53.206;13.316;2022-10-31T03:36:35;19.60;;;8.83;;
10659;SDS011;5378;53.206;13.316;2022-10-31T03:39:25;23.00;;;9.07;;
10659;SDS011;5378;53.206;13.316;2022-10-31T03:42:18;22.47;;;10.10;;
10659;SDS011;5378;53.206;13.316;2022-10-31T03:45:09;16.73;;;9.43;;
10659;SDS011;5378;53.206;13.316;2022-10-31T03:47:59;17.80;;;10.00;;
10659;SDS011;5378;53.206;13.316;2022-10-31T03:50:49;20.83;;;9.53;;
10659;SDS011;5378;53.206;13.316;2022-10-31T03:53:47;15.80;;;8.63;;
10659;SDS011;5378;53.206;13.316;2022-10-31T03:56:41;12.83;;;7.30;;
10659;SDS011;5378;53.206;13.316;2022-10-31T03:59:39;19.20;;;8.60;;
10659;SDS011;5378;53.206;13.316;2022-10-31T04:02:29;19.00;;;8.57;;
10659;SDS011;5378;53.206;13.316;2022-10-31T04:05:18;16.77;;;9.27;;
10659;SDS011;5378;53.206;13.316;2022-10-31T04:08:08;15.27;;;8.17;;
10659;SDS011;5378;53.206;13.316;2022-10-31T04:10:59;23.83;;;8.73;;
10659;SDS011;5378;53.206;13.316;2022-10-31T04:13:48;12.30;;;7.67;;
10659;SDS011;5378;53.206;13.316;2022-10-31T04:16:42;18.10;;;8.80;;
10659;SDS011;5378;53.206;13.316;2022-10-31T04:19:31;25.90;;;8.90;;
10659;SDS011;5378;53.206;13.316;2022-10-31T04:22:19;13.23;;;7.67;;
10659;SDS011;5378;53.206;13.316;2022-10-31T04:25:06;14.20;;;7.50;;
10659;SDS011;5378;53.206;13.316;2022-10-31T04:27:56;18.37;;;9.37;;
10659;SDS011;5378;53.206;13.316;2022-10-31T04:30:43;17.87;;;8.57;;
10659;SDS011;5378;53.206;13.316;2022-10-31T04:33:31;18.47;;;9.00;;
10659;SDS011;5378;53.206;13.316;2022-10-31T04:36:20;20.33;;;9.00;;
10659;SDS011;5378;53.206;13.316;2022-10-31T04:39:07;18.70;;;9.27;;
10659;SDS011;5378;53.206;13.316;2022-10-31T04:41:59;16.87;;;8.67;;
10659;SDS011;5378;53.206;13.316;2022-10-31T04:44:46;18.53;;;9.07;;
10659;SDS011;5378;53.206;13.316;2022-10-31T04:47:33;27.57;;;9.70;;
10659;SDS011;5378;53.206;13.316;2022-10-31T04:50:22;19.00;;;8.70;;
10659;SDS011;5378;53.206;13.316;2022-10-31T04:53:09;21.00;;;10.47;;
10659;SDS011;5378;53.206;13.316;2022-10-31T04:56:13;15.63;;;8.07;;
10659;SDS011;5378;53.206;13.316;2022-10-31T04:59:04;16.20;;;8.57;;
10659;SDS011;5378;53.206;13.316;2022-10-31T05:02:05;16.17;;;7.63;;
10659;SDS011;5378;53.206;13.316;2022-10-31T05:05:02;15.23;;;8.40;;
10659;SDS011;5378;53.206;13.316;2022-10-31T05:07:54;17.00;;;8.80;;
10659;SDS011;5378;53.206;13.316;2022-10-31T05:10:43;16.70;;;8.80;;
10659;SDS011;5378;53.206;13.316;2022-10-31T05:13:30;18.80;;;8.73;;
10659;SDS011;5378;53.206;13.316;2022-10-31T05:16:30;16.20;;;7.40;;
10659;SDS011;5378;53.206;13.316;2022-10-31T05:19:55;12.27;;;8.20;;
10659;SDS011;5378;53.206;13.316;2022-10-31T05:23:03;13.67;;;7.90;;
10659;SDS011;5378;53.206;13.316;2022-10-31T05:25:50;12.40;;;7.40;;
10659;SDS011;5378;53.206;13.316;2022-10-31T05:28:37;14.20;;;8.23;;
10659;SDS011;5378;53.206;13.316;2022-10-31T05:31:25;13.37;;;7.47;;
10659;SDS011;5378;53.206;13.316;2022-10-31T05:34:12;11.67;;;7.57;;
10659;SDS011;5378;53.206;13.316;2022-10-31T05:37:26;11.47;;;7.30;;
10659;SDS011;5378;53.206;13.316;2022-10-31T05:40:15;10.63;;;7.10;;
10659;SDS011;5378;53.206;13.316;2022-10-31T05:43:03;9.80;;;6.50;;
10659;SDS011;5378;53.206;13.316;2022-10-31T05:45:51;11.93;;;6.80;;
10659;SDS011;5378;53.206;13.316;2022-10-31T05:48:58;13.00;;;8.00;;
10659;SDS011;5378;53.206;13.316;2022-10-31T05:52:06;15.60;;;7.83;;
10659;SDS011;5378;53.206;13.316;2022-10-31T05:55:00;12.83;;;7.90;;
10659;SDS011;5378;53.206;13.316;2022-10-31T05:57:49;11.83;;;7.10;;
10659;SDS011;5378;53.206;13.316;2022-10-31T06:00:36;9.43;;;6.20;;
10659;SDS011;5378;53.206;13.316;2022-10-31T06:03:26;10.20;;;7.23;;
10659;SDS011;5378;53.206;13.316;2022-10-31T06:06:18;17.20;;;7.47;;
10659;SDS011;5378;53.206;13.316;2022-10-31T06:09:04;12.13;;;7.53;;
10659;SDS011;5378;53.206;13.316;2022-10-31T06:11:55;10.57;;;6.80;;
10659;SDS011;5378;53.206;13.316;2022-10-31T06:14:44;17.60;;;8.10;;
10659;SDS011;5378;53.206;13.316;2022-10-31T06:17:31;13.13;;;7.23;;
10659;SDS011;5378;53.206;13.316;2022-10-31T06:20:40;11.73;;;7.60;;
10659;SDS011;5378;53.206;13.316;2022-10-31T06:23:26;13.87;;;6.63;;
10659;SDS011;5378;53.206;13.316;2022-10-31T06:26:33;16.07;;;7.80;;
10659;SDS011;5378;53.206;13.316;2022-10-31T06:29:21;15.40;;;7.83;;
10659;SDS011;5378;53.206;13.316;2022-10-31T06:32:35;11.90;;;7.30;;
10659;SDS011;5378;53.206;13.316;2022-10-31T06:35:22;12.37;;;6.97;;
10659;SDS011;5378;53.206;13.316;2022-10-31T06:38:10;17.77;;;8.80;;
10659;SDS011;5378;53.206;13.316;2022-10-31T06:41:01;13.40;;;7.17;;
10659;SDS011;5378;53.206;13.316;2022-10-31T06:43:57;12.33;;;7.10;;
10659;SDS011;5378;53.206;13.316;2022-10-31T06:47:17;11.67;;;7.03;;
10659;SDS011;5378;53.206;13.316;2022-10-31T06:50:16;15.00;;;7.50;;
10659;SDS011;5378;53.206;13.316;2022-10-31T06:53:04;10.97;;;6.53;;
10659;SDS011;5378;53.206;13.316;2022-10-31T06:55:51;23.43;;;6.57;;
10659;SDS011;5378;53.206;13.316;2022-10-31T06:58:41;13.87;;;7.50;;
10659;SDS011;5378;53.206;13.316;2022-10-31T07:01:29;15.97;;;7.40;;
10659;SDS011;5378;53.206;13.316;2022-10-31T07:04:17;8.77;;;6.60;;
10659;SDS011;5378;53.206;13.316;2022-10-31T07:07:07;13.30;;;6.80;;
10659;SDS011;5378;53.206;13.316;2022-10-31T07:09:56;12.87;;;7.63;;
10659;SDS011;5378;53.206;13.316;2022-10-31T07:13:09;11.83;;;7.47;;
10659;SDS011;5378;53.206;13.316;2022-10-31T07:15:59;14.13;;;7.13;;
10659;SDS011;5378;53.206;13.316;2022-10-31T07:18:48;14.53;;;8.00;;
10659;SDS011;5378;53.206;13.316;2022-10-31T07:21:36;15.93;;;6.90;;
10659;SDS011;5378;53.206;13.316;2022-10-31T07:24:26;15.90;;;7.50;;
10659;SDS011;5378;53.206;13.316;2022-10-31T07:27:36;12.47;;;8.40;;
10659;SDS011;5378;53.206;13.316;2022-10-31T07:30:25;14.60;;;7.93;;
10659;SDS011;5378;53.206;13.316;2022-10-31T07:33:14;13.23;;;8.40;;
10659;SDS011;5378;53.206;13.316;2022-10-31T07:36:29;17.60;;;8.93;;
10659;SDS011;5378;53.206;13.316;2022-10-31T07:39:21;12.50;;;8.30;;
10659;SDS011;5378;53.206;13.316;2022-10-31T07:42:09;25.07;;;12.13;;
10659;SDS011;5378;53.206;13.316;2022-10-31T07:45:01;25.97;;;14.10;;
10659;SDS011;5378;53.206;13.316;2022-10-31T07:48:13;28.20;;;13.30;;
10659;SDS011;5378;53.206;13.316;2022-10-31T07:51:21;27.07;;;13.93;;
10659;SDS011;5378;53.206;13.316;2022-10-31T07:54:09;21.27;;;11.70;;
10659;SDS011;5378;53.206;13.316;2022-10-31T07:56:56;23.13;;;12.37;;
10659;SDS011;5378;53.206;13.316;2022-10-31T07:59:45;28.70;;;14.10;;
10659;SDS011;5378;53.206;13.316;2022-10-31T08:02:32;34.90;;;14.63;;
10659;SDS011;5378;53.206;13.316;2022-10-31T08:05:48;17.93;;;9.30;;
10659;SDS011;5378;53.206;13.316;2022-10-31T08:09:04;11.10;;;7.93;;
10659;SDS011;5378;53.206;13.316;2022-10-31T08:11:52;14.50;;;7.03;;
10659;SDS011;5378;53.206;13.316;2022-10-31T08:14:40;18.07;;;7.23;;
10659;SDS011;5378;53.206;13.316;2022-10-31T08:17:29;18.43;;;7.53;;
10659;SDS011;5378;53.206;13.316;2022-10-31T08:20:18;12.60;;;7.47;;
10659;SDS011;5378;53.206;13.316;2022-10-31T08:23:05;14.30;;;7.83;;
10659;SDS011;5378;53.206;13.316;2022-10-31T08:25:53;10.53;;;7.00;;
10659;SDS011;5378;53.206;13.316;2022-10-31T08:28:40;14.57;;;7.87;;
10659;SDS011;5378;53.206;13.316;2022-10-31T08:31:28;18.07;;;9.90;;
10659;SDS011;5378;53.206;13.316;2022-10-31T08:34:38;11.80;;;7.83;;
10659;SDS011;5378;53.206;13.316;2022-10-31T08:37:43;12.70;;;7.40;;
10659;SDS011;5378;53.206;13.316;2022-10-31T08:40:32;22.57;;;10.10;;
10659;SDS011;5378;53.206;13.316;2022-10-31T08:43:21;16.57;;;10.47;;
10659;SDS011;5378;53.206;13.316;2022-10-31T08:46:08;16.03;;;9.33;;
10659;SDS011;5378;53.206;13.316;2022-10-31T08:48:57;15.27;;;9.23;;
10659;SDS011;5378;53.206;13.316;2022-10-31T08:51:48;14.03;;;8.40;;
10659;SDS011;5378;53.206;13.316;2022-10-31T08:54:35;13.87;;;9.33;;
10659;SDS011;5378;53.206;13.316;2022-10-31T08:57:41;16.37;;;9.27;;
10659;SDS011;5378;53.206;13.316;2022-10-31T09:00:29;17.40;;;10.37;;
10659;SDS011;5378;53.206;13.316;2022-10-31T09:03:22;24.17;;;12.17;;
10659;SDS011;5378;53.206;13.316;2022-10-31T09:06:11;33.50;;;13.73;;
10659;SDS011;5378;53.206;13.316;2022-10-31T09:08:59;24.00;;;12.80;;
10659;SDS011;5378;53.206;13.316;2022-10-31T09:11:46;27.07;;;12.70;;
10659;SDS011;5378;53.206;13.316;2022-10-31T09:14:52;23.03;;;12.03;;
10659;SDS011;5378;53.206;13.316;2022-10-31T09:17:45;27.20;;;13.03;;
10659;SDS011;5378;53.206;13.316;2022-10-31T09:20:40;78.93;;;14.97;;
10659;SDS011;5378;53.206;13.316;2022-10-31T09:23:29;27.97;;;15.00;;
10659;SDS011;5378;53.206;13.316;2022-10-31T09:26:19;27.20;;;13.03;;
10659;SDS011;5378;53.206;13.316;2022-10-31T09:29:25;36.73;;;14.47;;
10659;SDS011;5378;53.206;13.316;2022-10-31T09:32:16;25.97;;;14.13;;
10659;SDS011;5378;53.206;13.316;2022-10-31T09:35:05;27.73;;;12.87;;
10659;SDS011;5378;53.206;13.316;2022-10-31T09:37:53;29.13;;;13.83;;
10659;SDS011;5378;53.206;13.316;2022-10-31T09:40:43;22.37;;;13.00;;
10659;SDS011;5378;53.206;13.316;2022-10-31T09:43:33;22.87;;;14.10;;
10659;SDS011;5378;53.206;13.316;2022-10-31T09:46:30;39.40;;;15.50;;
10659;SDS011;5378;53.206;13.316;2022-10-31T09:49:33;30.50;;;16.30;;
10659;SDS011;5378;53.206;13.316;2022-10-31T09:52:30;36.83;;;15.07;;
10659;SDS011;5378;53.206;13.316;2022-10-31T09:55:25;30.70;;;14.57;;
10659;SDS011;5378;53.206;13.316;2022-10-31T09:58:18;34.57;;;16.60;;
10659;SDS011;5378;53.206;13.316;2022-10-31T10:01:11;32.67;;;16.90;;
10659;SDS011;5378;53.206;13.316;2022-10-31T10:04:17;37.07;;;16.80;;
10659;SDS011;5378;53.206;13.316;2022-10-31T10:07:38;33.07;;;17.20;;
10659;SDS011;5378;53.206;13.316;2022-10-31T10:10:50;42.77;;;19.60;;
10659;SDS011;5378;53.206;13.316;2022-10-31T10:14:01;31.93;;;17.20;;
10659;SDS011;5378;53.206;13.316;2022-10-31T10:17:05;31.50;;;17.90;;
10659;SDS011;5378;53.206;13.316;2022-10-31T10:20:04;36.80;;;15.93;;
10659;SDS011;5378;53.206;13.316;2022-10-31T10:23:08;40.63;;;18.60;;
10659;SDS011;5378;53.206;13.316;2022-10-31T10:26:10;35.73;;;16.60;;
10659;SDS011;5378;53.206;13.316;2022-10-31T10:29:02;35.70;;;18.83;;
10659;SDS011;5378;53.206;13.316;2022-10-31T10:32:02;40.53;;;19.03;;
10659;SDS011;5378;53.206;13.316;2022-10-31T10:34:58;40.63;;;19.33;;
10659;SDS011;5378;53.206;13.316;2022-10-31T10:37:49;33.50;;;18.57;;
10659;SDS011;5378;53.206;13.316;2022-10-31T10:40:39;33.20;;;19.00;;
10659;SDS011;5378;53.206;13.316;2022-10-31T10:43:28;42.33;;;18.97;;
10659;SDS011;5378;53.206;13.316;2022-10-31T10:46:18;37.80;;;18.33;;
10659;SDS011;5378;53.206;13.316;2022-10-31T10:49:29;41.67;;;19.10;;
10659;SDS011;5378;53.206;13.316;2022-10-31T10:52:27;43.47;;;19.97;;
10659;SDS011;5378;53.206;13.316;2022-10-31T10:55:28;49.47;;;21.87;;
10659;SDS011;5378;53.206;13.316;2022-10-31T10:58:23;37.37;;;20.90;;
10659;SDS011;5378;53.206;13.316;2022-10-31T11:01:10;42.37;;;20.30;;
10659;SDS011;5378;53.206;13.316;2022-10-31T11:04:00;47.37;;;23.10;;
10659;SDS011;5378;53.206;13.316;2022-10-31T11:06:57;56.90;;;23.53;;
10659;SDS011;5378;53.206;13.316;2022-10-31T11:09:45;53.10;;;24.37;;
10659;SDS011;5378;53.206;13.316;2022-10-31T11:12:33;58.50;;;23.07;;
10659;SDS011;5378;53.206;13.316;2022-10-31T11:15:22;52.40;;;24.97;;
10659;SDS011;5378;53.206;13.316;2022-10-31T11:18:12;58.00;;;24.67;;
10659;SDS011;5378;53.206;13.316;2022-10-31T11:21:19;59.00;;;25.57;;
10659;SDS011;5378;53.206;13.316;2022-10-31T11:24:14;60.10;;;24.13;;
10659;SDS011;5378;53.206;13.316;2022-10-31T11:27:05;57.30;;;24.37;;
10659;SDS011;5378;53.206;13.316;2022-10-31T11:30:06;61.60;;;26.87;;
10659;SDS011;5378;53.206;13.316;2022-10-31T11:32:54;57.90;;;24.90;;
10659;SDS011;5378;53.206;13.316;2022-10-31T11:35:42;59.03;;;23.50;;
10659;SDS011;5378;53.206;13.316;2022-10-31T11:38:31;70.40;;;24.20;;
10659;SDS011;5378;53.206;13.316;2022-10-31T11:41:27;54.70;;;24.20;;
10659;SDS011;5378;53.206;13.316;2022-10-31T11:44:17;58.80;;;24.10;;
10659;SDS011;5378;53.206;13.316;2022-10-31T11:47:09;54.90;;;24.63;;
10659;SDS011;5378;53.206;13.316;2022-10-31T11:50:01;55.23;;;22.57;;
10659;SDS011;5378;53.206;13.316;2022-10-31T11:52:55;49.70;;;24.13;;
10659;SDS011;5378;53.206;13.316;2022-10-31T11:55:42;49.60;;;22.70;;
10659;SDS011;5378;53.206;13.316;2022-10-31T11:58:32;60.17;;;23.93;;
10659;SDS011;5378;53.206;13.316;2022-10-31T12:01:21;51.17;;;22.03;;
10659;SDS011;5378;53.206;13.316;2022-10-31T12:04:11;60.63;;;24.23;;
10659;SDS011;5378;53.206;13.316;2022-10-31T12:06:59;49.50;;;23.50;;
10659;SDS011;5378;53.206;13.316;2022-10-31T12:09:46;53.37;;;22.63;;
10659;SDS011;5378;53.206;13.316;2022-10-31T12:15:55;50.27;;;22.87;;
10659;SDS011;5378;53.206;13.316;2022-10-31T12:18:55;62.87;;;23.97;;
10659;SDS011;5378;53.206;13.316;2022-10-31T12:21:49;53.33;;;22.53;;
10659;SDS011;5378;53.206;13.316;2022-10-31T12:24:52;50.43;;;22.70;;
10659;SDS011;5378;53.206;13.316;2022-10-31T12:27:55;56.17;;;23.17;;
10659;SDS011;5378;53.206;13.316;2022-10-31T12:30:55;51.30;;;21.80;;
10659;SDS011;5378;53.206;13.316;2022-10-31T12:33:51;49.67;;;22.17;;
10659;SDS011;5378;53.206;13.316;2022-10-31T12:36:47;48.90;;;22.67;;
10659;SDS011;5378;53.206;13.316;2022-10-31T12:39:44;50.30;;;22.90;;
10659;SDS011;5378;53.206;13.316;2022-10-31T12:42:41;55.87;;;23.03;;
10659;SDS011;5378;53.206;13.316;2022-10-31T12:45:41;47.43;;;20.60;;
10659;SDS011;5378;53.206;13.316;2022-10-31T12:48:42;39.73;;;20.13;;
10659;SDS011;5378;53.206;13.316;2022-10-31T12:51:43;45.83;;;22.53;;
10659;SDS011;5378;53.206;13.316;2022-10-31T12:54:43;53.77;;;21.37;;
10659;SDS011;5378;53.206;13.316;2022-10-31T12:57:42;47.27;;;22.43;;
10659;SDS011;5378;53.206;13.316;2022-10-31T13:00:31;44.43;;;20.37;;
10659;SDS011;5378;53.206;13.316;2022-10-31T13:03:24;45.50;;;24.07;;
10659;SDS011;5378;53.206;13.316;2022-10-31T13:06:18;56.63;;;20.50;;
10659;SDS011;5378;53.206;13.316;2022-10-31T13:09:11;47.60;;;22.00;;
10659;SDS011;5378;53.206;13.316;2022-10-31T13:12:04;49.23;;;22.03;;
10659;SDS011;5378;53.206;13.316;2022-10-31T13:14:57;47.83;;;23.37;;
10659;SDS011;5378;53.206;13.316;2022-10-31T13:17:48;50.57;;;23.60;;
10659;SDS011;5378;53.206;13.316;2022-10-31T13:20:38;49.70;;;21.93;;
10659;SDS011;5378;53.206;13.316;2022-10-31T13:23:29;49.60;;;22.40;;
10659;SDS011;5378;53.206;13.316;2022-10-31T13:26:35;49.60;;;21.20;;
10659;SDS011;5378;53.206;13.316;2022-10-31T13:29:25;62.47;;;22.80;;
10659;SDS011;5378;53.206;13.316;2022-10-31T13:32:16;50.10;;;21.13;;
10659;SDS011;5378;53.206;13.316;2022-10-31T13:35:07;56.10;;;22.77;;
10659;SDS011;5378;53.206;13.316;2022-10-31T13:38:03;47.13;;;21.30;;
10659;SDS011;5378;53.206;13.316;2022-10-31T13:41:00;66.67;;;24.13;;
10659;SDS011;5378;53.206;13.316;2022-10-31T13:43:55;66.27;;;23.57;;
10659;SDS011;5378;53.206;13.316;2022-10-31T13:46:47;59.87;;;21.40;;
10659;SDS011;5378;53.206;13.316;2022-10-31T13:49:38;55.03;;;21.73;;
10659;SDS011;5378;53.206;13.316;2022-10-31T13:52:25;52.30;;;22.87;;
10659;SDS011;5378;53.206;13.316;2022-10-31T13:58:23;48.97;;;23.07;;
10659;SDS011;5378;53.206;13.316;2022-10-31T14:01:15;60.00;;;23.10;;
10659;SDS011;5378;53.206;13.316;2022-10-31T14:04:04;60.00;;;23.90;;
10659;SDS011;5378;53.206;13.316;2022-10-31T14:06:59;49.97;;;23.90;;
10659;SDS011;5378;53.206;13.316;2022-10-31T14:09:54;55.50;;;22.67;;
10659;SDS011;5378;53.206;13.316;2022-10-31T14:12:44;71.87;;;24.10;;
10659;SDS011;5378;53.206;13.316;2022-10-31T14:15:33;51.07;;;23.33;;
10659;SDS011;5378;53.206;13.316;2022-10-31T14:18:25;46.60;;;20.63;;
10659;SDS011;5378;53.206;13.316;2022-10-31T14:21:25;51.43;;;21.90;;
10659;SDS011;5378;53.206;13.316;2022-10-31T14:24:15;62.17;;;25.63;;
10659;SDS011;5378;53.206;13.316;2022-10-31T14:27:43;50.40;;;24.00;;
10659;SDS011;5378;53.206;13.316;2022-10-31T14:30:33;61.77;;;22.97;;
10659;SDS011;5378;53.206;13.316;2022-10-31T14:33:23;56.77;;;23.57;;
10659;SDS011;5378;53.206;13.316;2022-10-31T14:36:17;65.07;;;25.50;;
10659;SDS011;5378;53.206;13.316;2022-10-31T14:39:11;50.83;;;23.90;;
10659;SDS011;5378;53.206;13.316;2022-10-31T14:42:07;56.67;;;23.13;;
10659;SDS011;5378;53.206;13.316;2022-10-31T14:45:09;57.70;;;23.23;;
10659;SDS011;5378;53.206;13.316;2022-10-31T14:48:25;52.90;;;22.30;;
10659;SDS011;5378;53.206;13.316;2022-10-31T14:51:20;69.03;;;25.23;;
10659;SDS011;5378;53.206;13.316;2022-10-31T14:54:10;69.53;;;25.97;;
10659;SDS011;5378;53.206;13.316;2022-10-31T14:57:02;52.13;;;20.80;;
10659;SDS011;5378;53.206;13.316;2022-10-31T14:59:55;55.17;;;23.90;;
10659;SDS011;5378;53.206;13.316;2022-10-31T15:02:48;62.60;;;24.37;;
10659;SDS011;5378;53.206;13.316;2022-10-31T15:05:45;58.63;;;23.57;;
10659;SDS011;5378;53.206;13.316;2022-10-31T15:08:37;66.97;;;23.33;;
10659;SDS011;5378;53.206;13.316;2022-10-31T15:11:27;58.67;;;22.90;;
10659;SDS011;5378;53.206;13.316;2022-10-31T15:14:20;56.73;;;24.57;;
10659;SDS011;5378;53.206;13.316;2022-10-31T15:17:09;66.70;;;23.33;;
10659;SDS011;5378;53.206;13.316;2022-10-31T15:19:58;65.20;;;24.03;;
10659;SDS011;5378;53.206;13.316;2022-10-31T15:22:46;56.20;;;23.33;;
10659;SDS011;5378;53.206;13.316;2022-10-31T15:25:34;65.43;;;25.07;;
10659;SDS011;5378;53.206;13.316;2022-10-31T15:28:22;65.03;;;26.90;;
10659;SDS011;5378;53.206;13.316;2022-10-31T15:31:14;75.60;;;28.60;;
10659;SDS011;5378;53.206;13.316;2022-10-31T15:34:03;65.90;;;26.27;;
10659;SDS011;5378;53.206;13.316;2022-10-31T15:36:53;67.47;;;26.47;;
10659;SDS011;5378;53.206;13.316;2022-10-31T15:39:42;68.33;;;25.70;;
10659;SDS011;5378;53.206;13.316;2022-10-31T15:42:30;74.23;;;26.43;;
10659;SDS011;5378;53.206;13.316;2022-10-31T15:45:21;60.43;;;24.57;;
10659;SDS011;5378;53.206;13.316;2022-10-31T15:48:13;60.97;;;24.10;;
10659;SDS011;5378;53.206;13.316;2022-10-31T15:51:03;76.43;;;25.93;;
10659;SDS011;5378;53.206;13.316;2022-10-31T15:53:51;79.77;;;28.73;;
10659;SDS011;5378;53.206;13.316;2022-10-31T15:56:42;64.20;;;28.53;;
10659;SDS011;5378;53.206;13.316;2022-10-31T15:59:30;79.53;;;31.37;;
10659;SDS011;5378;53.206;13.316;2022-10-31T16:02:18;132.40;;;50.73;;
10659;SDS011;5378;53.206;13.316;2022-10-31T16:05:14;91.27;;;41.20;;
10659;SDS011;5378;53.206;13.316;2022-10-31T16:08:03;118.70;;;50.03;;
10659;SDS011;5378;53.206;13.316;2022-10-31T16:10:50;90.10;;;39.63;;
10659;SDS011;5378;53.206;13.316;2022-10-31T16:13:40;92.80;;;38.77;;
10659;SDS011;5378;53.206;13.316;2022-10-31T16:16:40;76.03;;;31.60;;
10659;SDS011;5378;53.206;13.316;2022-10-31T16:19:29;66.03;;;28.53;;
10659;SDS011;5378;53.206;13.316;2022-10-31T16:22:20;65.63;;;28.53;;
10659;SDS011;5378;53.206;13.316;2022-10-31T16:25:09;74.27;;;27.07;;
10659;SDS011;5378;53.206;13.316;2022-10-31T16:28:01;55.03;;;25.17;;
10659;SDS011;5378;53.206;13.316;2022-10-31T16:30:52;55.70;;;23.13;;
10659;SDS011;5378;53.206;13.316;2022-10-31T16:33:40;69.00;;;25.73;;
10659;SDS011;5378;53.206;13.316;2022-10-31T16:36:30;144.43;;;52.63;;
10659;SDS011;5378;53.206;13.316;2022-10-31T16:39:20;110.73;;;44.30;;
10659;SDS011;5378;53.206;13.316;2022-10-31T16:42:07;159.63;;;62.63;;
10659;SDS011;5378;53.206;13.316;2022-10-31T16:44:55;169.10;;;66.07;;
10659;SDS011;5378;53.206;13.316;2022-10-31T16:47:44;113.30;;;40.63;;
10659;SDS011;5378;53.206;13.316;2022-10-31T16:50:31;106.80;;;42.87;;
10659;SDS011;5378;53.206;13.316;2022-10-31T16:53:18;74.07;;;28.93;;
10659;SDS011;5378;53.206;13.316;2022-10-31T16:56:06;74.33;;;25.10;;
10659;SDS011;5378;53.206;13.316;2022-10-31T16:59:02;88.97;;;36.80;;
10659;SDS011;5378;53.206;13.316;2022-10-31T17:01:54;73.47;;;30.47;;
10659;SDS011;5378;53.206;13.316;2022-10-31T17:04:43;102.87;;;40.37;;
10659;SDS011;5378;53.206;13.316;2022-10-31T17:07:30;131.23;;;51.70;;
10659;SDS011;5378;53.206;13.316;2022-10-31T17:10:17;170.37;;;67.10;;